sensor_id;sensor_type;location;lat;lon;timestamp;pressure;altitude;pressure_sealevel;temperature;humidity
14269;BME280;7218;51.480;7.006;2023-05-28T00:02:03;100778.88;;;13.18;85.27
14269;BME280;7218;51.480;7.006;2023-05-28T00:04:31;100783.47;;;13.05;86.04
14269;BME280;7218;51.480;7.006;2023-05-28T00:06:57;100786.16;;;13.04;86.98
14269;BME280;7218;51.480;7.006;2023-05-28T00:09:24;100779.31;;;12.97;86.89
14269;BME280;7218;51.480;7.006;2023-05-28T00:11:52;100776.78;;;12.92;87.95
14269;BME280;7218;51.480;7.006;2023-05-28T00:14:19;100774.28;;;12.87;88.21
14269;BME280;7218;51.480;7.006;2023-05-28T00:16:46;100778.44;;;12.96;87.93
14269;BME280;7218;51.480;7.006;2023-05-28T00:19:12;100778.59;;;12.90;88.83
14269;BME280;7218;51.480;7.006;2023-05-28T00:21:38;100776.88;;;12.89;88.21
14269;BME280;7218;51.480;7.006;2023-05-28T00:24:05;100779.38;;;12.93;88.38
14269;BME280;7218;51.480;7.006;2023-05-28T00:26:32;100774.13;;;12.95;88.15
14269;BME280;7218;51.480;7.006;2023-05-28T00:29:00;100773.47;;;12.84;89.12
14269;BME280;7218;51.480;7.006;2023-05-28T00:31:26;100772.03;;;12.69;90.39
14269;BME280;7218;51.480;7.006;2023-05-28T00:33:52;100767.56;;;12.74;89.57
14269;BME280;7218;51.480;7.006;2023-05-28T00:36:19;100774.78;;;12.63;90.42
14269;BME280;7218;51.480;7.006;2023-05-28T00:38:45;100780.75;;;12.70;89.85
14269;BME280;7218;51.480;7.006;2023-05-28T00:41:12;100765.06;;;12.68;89.13
14269;BME280;7218;51.480;7.006;2023-05-28T00:43:38;100773.97;;;12.60;89.60
14269;BME280;7218;51.480;7.006;2023-05-28T00:46:06;100766.03;;;12.64;89.17
14269;BME280;7218;51.480;7.006;2023-05-28T00:48:33;100771.38;;;12.58;90.03
14269;BME280;7218;51.480;7.006;2023-05-28T00:51:00;100764.59;;;12.48;90.72
14269;BME280;7218;51.480;7.006;2023-05-28T00:53:26;100764.72;;;12.42;90.52
14269;BME280;7218;51.480;7.006;2023-05-28T00:55:53;100763.22;;;12.30;90.97
14269;BME280;7218;51.480;7.006;2023-05-28T00:58:21;100764.91;;;12.33;91.90
14269;BME280;7218;51.480;7.006;2023-05-28T01:00:48;100771.84;;;12.34;91.23
14269;BME280;7218;51.480;7.006;2023-05-28T01:03:16;100762.47;;;12.24;91.98
14269;BME280;7218;51.480;7.006;2023-05-28T01:05:43;100773.91;;;12.17;93.33
14269;BME280;7218;51.480;7.006;2023-05-28T01:08:09;100769.53;;;12.19;92.29
14269;BME280;7218;51.480;7.006;2023-05-28T01:10:36;100773.72;;;12.26;92.65
14269;BME280;7218;51.480;7.006;2023-05-28T01:13:05;100769.16;;;12.37;91.19
14269;BME280;7218;51.480;7.006;2023-05-28T01:15:33;100765.84;;;12.30;91.04
14269;BME280;7218;51.480;7.006;2023-05-28T01:18:01;100766.72;;;12.28;92.07
14269;BME280;7218;51.480;7.006;2023-05-28T01:20:30;100760.72;;;12.24;92.73
14269;BME280;7218;51.480;7.006;2023-05-28T01:23:00;100765.19;;;12.18;92.78
14269;BME280;7218;51.480;7.006;2023-05-28T01:25:30;100762.72;;;12.10;92.84
14269;BME280;7218;51.480;7.006;2023-05-28T01:27:59;100755.84;;;12.03;93.20
14269;BME280;7218;51.480;7.006;2023-05-28T01:30:26;100756.72;;;12.03;93.48
14269;BME280;7218;51.480;7.006;2023-05-28T01:32:53;100760.38;;;11.95;93.56
14269;BME280;7218;51.480;7.006;2023-05-28T01:35:20;100747.41;;;11.89;94.66
14269;BME280;7218;51.480;7.006;2023-05-28T01:37:48;100757.06;;;11.85;94.76
14269;BME280;7218;51.480;7.006;2023-05-28T01:40:17;100759.69;;;11.84;94.96
14269;BME280;7218;51.480;7.006;2023-05-28T01:42:45;100754.41;;;11.87;94.71
14269;BME280;7218;51.480;7.006;2023-05-28T01:45:12;100751.16;;;11.73;95.81
14269;BME280;7218;51.480;7.006;2023-05-28T01:47:40;100745.94;;;11.73;96.08
14269;BME280;7218;51.480;7.006;2023-05-28T01:50:07;100741.69;;;11.64;96.73
14269;BME280;7218;51.480;7.006;2023-05-28T01:52:34;100745.13;;;11.66;96.62
14269;BME280;7218;51.480;7.006;2023-05-28T01:55:01;100745.97;;;11.70;96.43
14269;BME280;7218;51.480;7.006;2023-05-28T01:57:28;100729.34;;;11.72;95.55
14269;BME280;7218;51.480;7.006;2023-05-28T01:59:56;100738.97;;;11.73;95.22
14269;BME280;7218;51.480;7.006;2023-05-28T02:02:23;100733.06;;;11.59;96.12
14269;BME280;7218;51.480;7.006;2023-05-28T02:04:51;100734.81;;;11.58;96.41
14269;BME280;7218;51.480;7.006;2023-05-28T02:07:18;100736.56;;;11.58;96.06
14269;BME280;7218;51.480;7.006;2023-05-28T02:09:44;100739.25;;;11.52;97.01
14269;BME280;7218;51.480;7.006;2023-05-28T02:12:11;100734.19;;;11.44;97.31
14269;BME280;7218;51.480;7.006;2023-05-28T02:14:38;100735.00;;;11.46;97.40
14269;BME280;7218;51.480;7.006;2023-05-28T02:17:05;100729.81;;;11.45;97.58
14269;BME280;7218;51.480;7.006;2023-05-28T02:19:32;100731.41;;;11.53;96.28
14269;BME280;7218;51.480;7.006;2023-05-28T02:21:59;100738.44;;;11.50;96.82
14269;BME280;7218;51.480;7.006;2023-05-28T02:24:25;100727.16;;;11.46;97.09
14269;BME280;7218;51.480;7.006;2023-05-28T02:26:52;100728.09;;;11.44;97.21
14269;BME280;7218;51.480;7.006;2023-05-28T02:29:18;100724.69;;;11.39;97.37
14269;BME280;7218;51.480;7.006;2023-05-28T02:31:45;100724.63;;;11.42;96.71
14269;BME280;7218;51.480;7.006;2023-05-28T02:34:13;100724.69;;;11.39;96.55
14269;BME280;7218;51.480;7.006;2023-05-28T02:36:39;100724.84;;;11.27;96.99
14269;BME280;7218;51.480;7.006;2023-05-28T02:39:06;100726.50;;;11.34;97.00
14269;BME280;7218;51.480;7.006;2023-05-28T02:41:35;100731.88;;;11.23;97.28
14269;BME280;7218;51.480;7.006;2023-05-28T02:44:01;100732.84;;;11.17;98.18
14269;BME280;7218;51.480;7.006;2023-05-28T02:46:28;100725.84;;;11.19;97.91
14269;BME280;7218;51.480;7.006;2023-05-28T02:48:55;100734.41;;;11.29;97.21
14269;BME280;7218;51.480;7.006;2023-05-28T02:51:22;100731.81;;;11.26;97.88
14269;BME280;7218;51.480;7.006;2023-05-28T02:53:49;100725.88;;;11.18;98.54
14269;BME280;7218;51.480;7.006;2023-05-28T02:56:15;100726.72;;;11.18;98.46
14269;BME280;7218;51.480;7.006;2023-05-28T02:58:42;100726.69;;;11.21;98.25
14269;BME280;7218;51.480;7.006;2023-05-28T03:01:08;100730.22;;;11.19;98.30
14269;BME280;7218;51.480;7.006;2023-05-28T03:03:35;100731.16;;;11.13;98.32
14269;BME280;7218;51.480;7.006;2023-05-28T03:06:01;100736.38;;;11.13;98.23
14269;BME280;7218;51.480;7.006;2023-05-28T03:08:29;100735.53;;;11.11;98.01
14269;BME280;7218;51.480;7.006;2023-05-28T03:10:56;100739.16;;;11.01;98.69
14269;BME280;7218;51.480;7.006;2023-05-28T03:13:22;100745.34;;;10.96;98.96
14269;BME280;7218;51.480;7.006;2023-05-28T03:15:48;100740.91;;;11.01;99.38
14269;BME280;7218;51.480;7.006;2023-05-28T03:18:15;100745.28;;;10.97;98.60
14269;BME280;7218;51.480;7.006;2023-05-28T03:20:41;100745.53;;;10.81;99.99
14269;BME280;7218;51.480;7.006;2023-05-28T03:23:08;100740.34;;;10.77;100.00
14269;BME280;7218;51.480;7.006;2023-05-28T03:25:36;100750.72;;;10.82;100.00
14269;BME280;7218;51.480;7.006;2023-05-28T03:28:02;100748.09;;;10.82;100.00
14269;BME280;7218;51.480;7.006;2023-05-28T03:30:29;100746.47;;;10.75;100.00
14269;BME280;7218;51.480;7.006;2023-05-28T03:32:55;100745.47;;;10.85;100.00
14269;BME280;7218;51.480;7.006;2023-05-28T03:35:22;100742.03;;;10.82;100.00
14269;BME280;7218;51.480;7.006;2023-05-28T03:37:48;100749.97;;;10.74;100.00
14269;BME280;7218;51.480;7.006;2023-05-28T03:40:15;100739.47;;;10.80;99.93
14269;BME280;7218;51.480;7.006;2023-05-28T03:42:43;100737.78;;;10.73;100.00
14269;BME280;7218;51.480;7.006;2023-05-28T03:45:09;100734.31;;;10.71;100.00
14269;BME280;7218;51.480;7.006;2023-05-28T03:47:37;100730.84;;;10.72;100.00
14269;BME280;7218;51.480;7.006;2023-05-28T03:50:04;100733.44;;;10.73;100.00
14269;BME280;7218;51.480;7.006;2023-05-28T03:52:31;100738.72;;;10.67;100.00
14269;BME280;7218;51.480;7.006;2023-05-28T03:54:57;100730.97;;;10.63;100.00
14269;BME280;7218;51.480;7.006;2023-05-28T03:57:24;100742.31;;;10.59;100.00
14269;BME280;7218;51.480;7.006;2023-05-28T03:59:52;100743.13;;;10.64;100.00
14269;BME280;7218;51.480;7.006;2023-05-28T04:02:21;100744.75;;;10.72;100.00
14269;BME280;7218;51.480;7.006;2023-05-28T04:04:47;100741.38;;;10.64;100.00
14269;BME280;7218;51.480;7.006;2023-05-28T04:07:14;100750.09;;;10.62;100.00
14269;BME280;7218;51.480;7.006;2023-05-28T04:09:40;100750.09;;;10.62;100.00
14269;BME280;7218;51.480;7.006;2023-05-28T04:12:07;100744.00;;;10.66;100.00
14269;BME280;7218;51.480;7.006;2023-05-28T04:14:34;100744.81;;;10.66;100.00
14269;BME280;7218;51.480;7.006;2023-05-28T04:17:01;100738.59;;;10.76;100.00
14269;BME280;7218;51.480;7.006;2023-05-28T04:19:28;100740.34;;;10.76;100.00
14269;BME280;7218;51.480;7.006;2023-05-28T04:21:54;100746.44;;;10.76;100.00
14269;BME280;7218;51.480;7.006;2023-05-28T04:24:21;100742.16;;;10.72;100.00
14269;BME280;7218;51.480;7.006;2023-05-28T04:26:47;100744.63;;;10.82;100.00
14269;BME280;7218;51.480;7.006;2023-05-28T04:29:14;100744.47;;;10.95;100.00
14269;BME280;7218;51.480;7.006;2023-05-28T04:31:41;100746.28;;;10.89;100.00
14269;BME280;7218;51.480;7.006;2023-05-28T04:34:10;100748.75;;;10.99;100.00
14269;BME280;7218;51.480;7.006;2023-05-28T04:36:37;100750.44;;;11.02;100.00
14269;BME280;7218;51.480;7.006;2023-05-28T04:39:03;100759.94;;;11.10;99.83
14269;BME280;7218;51.480;7.006;2023-05-28T04:41:30;100764.94;;;11.22;99.66
14269;BME280;7218;51.480;7.006;2023-05-28T04:43:56;100758.94;;;11.17;99.07
14269;BME280;7218;51.480;7.006;2023-05-28T04:46:23;100760.69;;;11.17;99.43
14269;BME280;7218;51.480;7.006;2023-05-28T04:48:50;100755.38;;;11.21;98.92
14269;BME280;7218;51.480;7.006;2023-05-28T04:51:18;100758.69;;;11.34;98.42
14269;BME280;7218;51.480;7.006;2023-05-28T04:53:46;100757.72;;;11.41;98.20
14269;BME280;7218;51.480;7.006;2023-05-28T04:56:12;100754.28;;;11.38;97.69
14269;BME280;7218;51.480;7.006;2023-05-28T04:58:39;100755.81;;;11.52;97.08
14269;BME280;7218;51.480;7.006;2023-05-28T05:01:05;100752.22;;;11.58;96.18
14269;BME280;7218;51.480;7.006;2023-05-28T05:03:32;100753.16;;;11.55;96.71
14269;BME280;7218;51.480;7.006;2023-05-28T05:05:59;100743.59;;;11.53;96.35
14269;BME280;7218;51.480;7.006;2023-05-28T05:08:27;100749.53;;;11.64;96.02
14269;BME280;7218;51.480;7.006;2023-05-28T05:10:53;100747.63;;;11.72;95.69
14269;BME280;7218;51.480;7.006;2023-05-28T05:13:20;100754.56;;;11.78;94.83
14269;BME280;7218;51.480;7.006;2023-05-28T05:15:46;100760.56;;;11.84;94.43
14269;BME280;7218;51.480;7.006;2023-05-28T05:18:13;100763.28;;;11.77;95.24
14269;BME280;7218;51.480;7.006;2023-05-28T05:20:39;100764.84;;;11.87;94.18
14269;BME280;7218;51.480;7.006;2023-05-28T05:23:06;100770.91;;;11.90;93.75
14269;BME280;7218;51.480;7.006;2023-05-28T05:25:34;100769.78;;;12.05;94.19
14269;BME280;7218;51.480;7.006;2023-05-28T05:28:00;100777.47;;;12.13;93.53
14269;BME280;7218;51.480;7.006;2023-05-28T05:30:26;100772.16;;;12.16;93.67
14269;BME280;7218;51.480;7.006;2023-05-28T05:32:53;100773.72;;;12.26;93.62
14269;BME280;7218;51.480;7.006;2023-05-28T05:35:19;100767.50;;;12.33;93.54
14269;BME280;7218;51.480;7.006;2023-05-28T05:37:46;100767.41;;;12.39;93.01
14269;BME280;7218;51.480;7.006;2023-05-28T05:40:13;100766.34;;;12.47;92.59
14269;BME280;7218;51.480;7.006;2023-05-28T05:42:41;100773.16;;;12.56;92.16
14269;BME280;7218;51.480;7.006;2023-05-28T05:45:08;100766.16;;;12.58;91.08
14269;BME280;7218;51.480;7.006;2023-05-28T05:47:35;100765.09;;;12.67;90.50
14269;BME280;7218;51.480;7.006;2023-05-28T05:50:03;100769.16;;;12.81;90.72
14269;BME280;7218;51.480;7.006;2023-05-28T05:52:30;100758.53;;;12.89;89.95
14269;BME280;7218;51.480;7.006;2023-05-28T05:54:56;100777.56;;;12.95;89.57
14269;BME280;7218;51.480;7.006;2023-05-28T05:57:23;100776.53;;;13.04;88.87
14269;BME280;7218;51.480;7.006;2023-05-28T05:59:52;100766.84;;;13.08;87.23
14269;BME280;7218;51.480;7.006;2023-05-28T06:02:19;100770.28;;;13.13;87.70
14269;BME280;7218;51.480;7.006;2023-05-28T06:04:45;100770.13;;;13.19;86.23
14269;BME280;7218;51.480;7.006;2023-05-28T06:07:12;100772.47;;;13.31;84.47
14269;BME280;7218;51.480;7.006;2023-05-28T06:09:39;100763.47;;;13.43;83.66
14269;BME280;7218;51.480;7.006;2023-05-28T06:12:06;100766.72;;;13.54;84.01
14269;BME280;7218;51.480;7.006;2023-05-28T06:14:32;100765.88;;;13.52;84.07
14269;BME280;7218;51.480;7.006;2023-05-28T06:17:00;100768.34;;;13.58;84.99
14269;BME280;7218;51.480;7.006;2023-05-28T06:19:27;100761.34;;;13.60;84.40
14269;BME280;7218;51.480;7.006;2023-05-28T06:21:54;100761.22;;;13.64;84.49
14269;BME280;7218;51.480;7.006;2023-05-28T06:24:20;100762.75;;;13.73;83.27
14269;BME280;7218;51.480;7.006;2023-05-28T06:26:47;100760.47;;;13.59;83.71
14269;BME280;7218;51.480;7.006;2023-05-28T06:29:13;100760.00;;;13.77;82.73
14269;BME280;7218;51.480;7.006;2023-05-28T06:31:40;100764.91;;;13.91;82.81
14269;BME280;7218;51.480;7.006;2023-05-28T06:34:08;100773.53;;;13.95;82.85
14269;BME280;7218;51.480;7.006;2023-05-28T06:36:34;100772.63;;;13.97;82.47
14269;BME280;7218;51.480;7.006;2023-05-28T06:39:03;100770.63;;;14.07;81.66
14269;BME280;7218;51.480;7.006;2023-05-28T06:41:29;100774.06;;;14.09;81.87
14269;BME280;7218;51.480;7.006;2023-05-28T06:43:56;100756.34;;;14.18;81.15
14269;BME280;7218;51.480;7.006;2023-05-28T06:46:22;100765.75;;;14.26;80.93
14269;BME280;7218;51.480;7.006;2023-05-28T06:48:49;100761.19;;;14.34;81.25
14269;BME280;7218;51.480;7.006;2023-05-28T06:51:17;100754.69;;;14.48;80.70
14269;BME280;7218;51.480;7.006;2023-05-28T06:53:43;100763.31;;;14.52;79.67
14269;BME280;7218;51.480;7.006;2023-05-28T06:56:10;100770.06;;;14.60;78.82
14269;BME280;7218;51.480;7.006;2023-05-28T06:58:36;100762.03;;;14.67;78.28
14269;BME280;7218;51.480;7.006;2023-05-28T07:01:03;100756.31;;;14.83;77.58
14269;BME280;7218;51.480;7.006;2023-05-28T07:03:29;100757.19;;;14.82;76.32
14269;BME280;7218;51.480;7.006;2023-05-28T07:05:56;100756.78;;;14.96;74.80
14269;BME280;7218;51.480;7.006;2023-05-28T07:08:24;100753.00;;;15.04;74.78
14269;BME280;7218;51.480;7.006;2023-05-28T07:10:52;100759.25;;;15.02;74.31
14269;BME280;7218;51.480;7.006;2023-05-28T07:13:18;100767.00;;;15.05;74.00
14269;BME280;7218;51.480;7.006;2023-05-28T07:15:45;100762.34;;;15.15;72.88
14269;BME280;7218;51.480;7.006;2023-05-28T07:18:11;100767.34;;;15.24;73.02
14269;BME280;7218;51.480;7.006;2023-05-28T07:20:38;100767.78;;;15.38;72.29
14269;BME280;7218;51.480;7.006;2023-05-28T07:23:05;100773.63;;;15.46;71.98
14269;BME280;7218;51.480;7.006;2023-05-28T07:25:32;100774.16;;;15.59;71.83
14269;BME280;7218;51.480;7.006;2023-05-28T07:27:59;100772.16;;;15.65;71.55
14269;BME280;7218;51.480;7.006;2023-05-28T07:30:25;100767.59;;;15.72;71.64
14269;BME280;7218;51.480;7.006;2023-05-28T07:32:52;100762.06;;;15.79;71.14
14269;BME280;7218;51.480;7.006;2023-05-28T07:35:18;100761.47;;;15.98;70.42
14269;BME280;7218;51.480;7.006;2023-05-28T07:37:45;100760.28;;;16.06;69.29
14269;BME280;7218;51.480;7.006;2023-05-28T07:40:11;100754.00;;;16.10;68.16
14269;BME280;7218;51.480;7.006;2023-05-28T07:42:40;100744.78;;;16.23;67.18
14269;BME280;7218;51.480;7.006;2023-05-28T07:45:07;100744.72;;;16.25;66.33
14269;BME280;7218;51.480;7.006;2023-05-28T07:47:34;100742.03;;;16.26;65.48
14269;BME280;7218;51.480;7.006;2023-05-28T07:50:00;100723.41;;;16.32;62.33
14269;BME280;7218;51.480;7.006;2023-05-28T07:52:27;100729.16;;;16.44;62.34
14269;BME280;7218;51.480;7.006;2023-05-28T07:54:54;100726.00;;;16.57;62.52
14269;BME280;7218;51.480;7.006;2023-05-28T07:57:22;100726.31;;;16.73;63.05
14269;BME280;7218;51.480;7.006;2023-05-28T07:59:50;100727.56;;;16.86;61.91
14269;BME280;7218;51.480;7.006;2023-05-28T08:02:17;100731.69;;;16.93;61.04
14269;BME280;7218;51.480;7.006;2023-05-28T08:04:44;100735.63;;;17.05;59.27
14269;BME280;7218;51.480;7.006;2023-05-28T08:07:10;100728.97;;;17.18;58.42
14269;BME280;7218;51.480;7.006;2023-05-28T08:09:38;100724.28;;;17.25;59.65
14269;BME280;7218;51.480;7.006;2023-05-28T08:12:06;100730.53;;;17.44;58.06
14269;BME280;7218;51.480;7.006;2023-05-28T08:14:33;100732.28;;;17.45;57.97
14269;BME280;7218;51.480;7.006;2023-05-28T08:17:01;100724.84;;;17.54;57.49
14269;BME280;7218;51.480;7.006;2023-05-28T08:19:27;100722.59;;;17.67;55.67
14269;BME280;7218;51.480;7.006;2023-05-28T08:21:54;100720.38;;;17.78;54.91
14269;BME280;7218;51.480;7.006;2023-05-28T08:24:20;100717.28;;;17.89;55.51
14269;BME280;7218;51.480;7.006;2023-05-28T08:26:47;100709.72;;;18.01;54.27
14269;BME280;7218;51.480;7.006;2023-05-28T08:29:13;100717.22;;;18.11;53.05
14269;BME280;7218;51.480;7.006;2023-05-28T08:31:40;100713.13;;;18.24;53.06
14269;BME280;7218;51.480;7.006;2023-05-28T08:34:08;100706.00;;;18.26;50.96
14269;BME280;7218;51.480;7.006;2023-05-28T08:36:35;100711.00;;;18.32;52.34
14269;BME280;7218;51.480;7.006;2023-05-28T08:39:01;100703.13;;;18.50;51.82
14269;BME280;7218;51.480;7.006;2023-05-28T08:41:28;100698.78;;;18.68;52.02
14269;BME280;7218;51.480;7.006;2023-05-28T08:43:55;100699.31;;;18.76;49.77
14269;BME280;7218;51.480;7.006;2023-05-28T08:46:22;100698.09;;;18.83;49.12
14269;BME280;7218;51.480;7.006;2023-05-28T08:48:48;100689.75;;;18.92;48.99
14269;BME280;7218;51.480;7.006;2023-05-28T08:51:18;100695.78;;;19.13;48.71
14269;BME280;7218;51.480;7.006;2023-05-28T08:53:47;100687.22;;;19.27;50.00
14269;BME280;7218;51.480;7.006;2023-05-28T08:56:13;100683.03;;;19.40;47.85
14269;BME280;7218;51.480;7.006;2023-05-28T08:58:40;100682.28;;;19.55;46.28
14269;BME280;7218;51.480;7.006;2023-05-28T09:01:08;100683.78;;;19.61;47.51
14269;BME280;7218;51.480;7.006;2023-05-28T09:03:36;100677.47;;;19.63;47.33
14269;BME280;7218;51.480;7.006;2023-05-28T09:06:04;100676.53;;;19.64;46.86
14269;BME280;7218;51.480;7.006;2023-05-28T09:08:33;100677.31;;;19.84;47.34
14269;BME280;7218;51.480;7.006;2023-05-28T09:11:08;100671.09;;;20.02;46.83
14269;BME280;7218;51.480;7.006;2023-05-28T09:13:35;100666.84;;;20.15;46.12
14269;BME280;7218;51.480;7.006;2023-05-28T09:16:01;100675.72;;;20.14;46.66
14269;BME280;7218;51.480;7.006;2023-05-28T09:18:28;100664.66;;;20.23;44.98
14269;BME280;7218;51.480;7.006;2023-05-28T09:20:59;100676.38;;;20.52;46.33
14269;BME280;7218;51.480;7.006;2023-05-28T09:23:26;100677.09;;;20.71;45.04
14269;BME280;7218;51.480;7.006;2023-05-28T09:25:55;100667.53;;;21.00;45.85
14269;BME280;7218;51.480;7.006;2023-05-28T09:28:26;100673.69;;;21.00;44.29
14269;BME280;7218;51.480;7.006;2023-05-28T09:30:53;100668.78;;;21.09;44.73
14269;BME280;7218;51.480;7.006;2023-05-28T09:33:20;100665.91;;;21.29;43.90
14269;BME280;7218;51.480;7.006;2023-05-28T09:35:57;100668.47;;;20.99;44.50
14269;BME280;7218;51.480;7.006;2023-05-28T09:38:24;100667.16;;;21.37;44.39
14269;BME280;7218;51.480;7.006;2023-05-28T09:40:53;100652.81;;;21.85;42.65
14269;BME280;7218;51.480;7.006;2023-05-28T09:43:27;100661.03;;;21.97;42.66
14269;BME280;7218;51.480;7.006;2023-05-28T09:46:06;100659.31;;;22.38;42.08
14269;BME280;7218;51.480;7.006;2023-05-28T09:48:33;100654.47;;;22.59;42.37
14269;BME280;7218;51.480;7.006;2023-05-28T09:51:03;100660.44;;;22.91;39.68
14269;BME280;7218;51.480;7.006;2023-05-28T09:53:31;100649.97;;;23.29;40.17
14269;BME280;7218;51.480;7.006;2023-05-28T09:55:59;100652.66;;;23.41;39.51
14269;BME280;7218;51.480;7.006;2023-05-28T09:58:32;100649.47;;;23.76;39.28
14269;BME280;7218;51.480;7.006;2023-05-28T10:01:00;100651.47;;;23.72;38.57
14269;BME280;7218;51.480;7.006;2023-05-28T10:03:34;100650.88;;;23.94;37.08
14269;BME280;7218;51.480;7.006;2023-05-28T10:06:04;100653.72;;;23.78;36.47
14269;BME280;7218;51.480;7.006;2023-05-28T10:08:33;100650.13;;;23.92;38.10
14269;BME280;7218;51.480;7.006;2023-05-28T10:11:03;100652.06;;;24.28;36.72
14269;BME280;7218;51.480;7.006;2023-05-28T10:13:33;100653.47;;;24.33;35.88
14269;BME280;7218;51.480;7.006;2023-05-28T10:16:00;100650.88;;;24.57;35.59
14269;BME280;7218;51.480;7.006;2023-05-28T10:18:28;100653.44;;;24.59;35.99
14269;BME280;7218;51.480;7.006;2023-05-28T10:20:56;100653.66;;;24.43;34.33
14269;BME280;7218;51.480;7.006;2023-05-28T10:23:24;100662.28;;;24.59;34.28
14269;BME280;7218;51.480;7.006;2023-05-28T10:25:51;100659.22;;;24.40;34.97
14269;BME280;7218;51.480;7.006;2023-05-28T10:28:19;100668.47;;;24.60;35.23
14269;BME280;7218;51.480;7.006;2023-05-28T10:30:59;100652.25;;;24.63;34.91
14269;BME280;7218;51.480;7.006;2023-05-28T10:33:26;100652.94;;;24.77;35.73
14269;BME280;7218;51.480;7.006;2023-05-28T10:35:55;100651.84;;;25.29;34.88
14269;BME280;7218;51.480;7.006;2023-05-28T10:38:22;100660.72;;;25.41;33.86
14269;BME280;7218;51.480;7.006;2023-05-28T10:40:49;100648.00;;;25.68;33.16
14269;BME280;7218;51.480;7.006;2023-05-28T10:43:39;100653.69;;;26.09;33.88
14269;BME280;7218;51.480;7.006;2023-05-28T10:46:09;100651.06;;;26.32;32.49
14269;BME280;7218;51.480;7.006;2023-05-28T10:48:37;100648.50;;;26.52;30.63
14269;BME280;7218;51.480;7.006;2023-05-28T10:51:04;100652.16;;;26.74;30.96
14269;BME280;7218;51.480;7.006;2023-05-28T10:53:31;100658.22;;;26.76;31.35
14269;BME280;7218;51.480;7.006;2023-05-28T10:55:57;100659.94;;;26.88;30.85
14269;BME280;7218;51.480;7.006;2023-05-28T10:58:25;100658.59;;;26.93;31.08
14269;BME280;7218;51.480;7.006;2023-05-28T11:00:52;100649.81;;;27.03;30.34
14269;BME280;7218;51.480;7.006;2023-05-28T11:03:42;100655.53;;;26.98;30.18
14269;BME280;7218;51.480;7.006;2023-05-28T11:06:10;100644.59;;;26.90;30.81
14269;BME280;7218;51.480;7.006;2023-05-28T11:08:48;100650.31;;;26.74;30.04
14269;BME280;7218;51.480;7.006;2023-05-28T11:11:18;100648.28;;;27.21;31.97
14269;BME280;7218;51.480;7.006;2023-05-28T11:13:46;100652.94;;;27.51;31.24
14269;BME280;7218;51.480;7.006;2023-05-28T11:16:15;100642.91;;;27.64;29.10
14269;BME280;7218;51.480;7.006;2023-05-28T11:19:01;100648.19;;;27.75;30.66
14269;BME280;7218;51.480;7.006;2023-05-28T11:21:28;100651.84;;;27.95;28.93
14269;BME280;7218;51.480;7.006;2023-05-28T11:24:01;100647.16;;;28.29;29.33
14269;BME280;7218;51.480;7.006;2023-05-28T11:26:28;100641.63;;;28.30;28.61
14269;BME280;7218;51.480;7.006;2023-05-28T11:28:55;100651.34;;;28.52;29.23
14269;BME280;7218;51.480;7.006;2023-05-28T11:31:21;100646.88;;;28.32;28.78
14269;BME280;7218;51.480;7.006;2023-05-28T11:33:48;100646.00;;;28.61;30.14
14269;BME280;7218;51.480;7.006;2023-05-28T11:36:18;100648.63;;;28.82;28.75
14269;BME280;7218;51.480;7.006;2023-05-28T11:38:44;100652.75;;;28.96;29.67
14269;BME280;7218;51.480;7.006;2023-05-28T11:41:11;100650.94;;;29.16;27.25
14269;BME280;7218;51.480;7.006;2023-05-28T11:43:37;100651.06;;;28.95;26.94
14269;BME280;7218;51.480;7.006;2023-05-28T11:46:05;100652.72;;;28.77;27.57
14269;BME280;7218;51.480;7.006;2023-05-28T11:48:36;100653.03;;;28.53;26.75
14269;BME280;7218;51.480;7.006;2023-05-28T11:51:03;100652.88;;;28.85;27.62
14269;BME280;7218;51.480;7.006;2023-05-28T11:53:40;100648.06;;;28.48;26.91
14269;BME280;7218;51.480;7.006;2023-05-28T11:56:08;100658.88;;;29.07;26.64
14269;BME280;7218;51.480;7.006;2023-05-28T11:58:35;100657.16;;;29.06;27.36
14269;BME280;7218;51.480;7.006;2023-05-28T12:01:05;100648.59;;;29.41;26.80
14269;BME280;7218;51.480;7.006;2023-05-28T12:03:32;100656.59;;;28.93;27.71
14269;BME280;7218;51.480;7.006;2023-05-28T12:05:58;100648.25;;;28.05;28.39
14269;BME280;7218;51.480;7.006;2023-05-28T12:08:26;100652.56;;;27.12;29.07
14269;BME280;7218;51.480;7.006;2023-05-28T12:10:59;100651.31;;;27.27;29.73
14269;BME280;7218;51.480;7.006;2023-05-28T12:13:30;100643.59;;;27.66;28.39
14269;BME280;7218;51.480;7.006;2023-05-28T12:16:05;100645.94;;;28.42;27.08
14269;BME280;7218;51.480;7.006;2023-05-28T12:18:31;100648.38;;;28.95;27.61
14269;BME280;7218;51.480;7.006;2023-05-28T12:20:58;100646.09;;;28.90;27.97
14269;BME280;7218;51.480;7.006;2023-05-28T12:23:24;100646.44;;;29.26;27.91
14269;BME280;7218;51.480;7.006;2023-05-28T12:25:51;100636.16;;;29.50;27.12
14269;BME280;7218;51.480;7.006;2023-05-28T12:28:20;100641.91;;;29.74;28.08
14269;BME280;7218;51.480;7.006;2023-05-28T12:30:48;100637.63;;;30.10;26.68
14269;BME280;7218;51.480;7.006;2023-05-28T12:33:16;100639.44;;;31.11;25.71
14269;BME280;7218;51.480;7.006;2023-05-28T12:35:43;100641.44;;;31.80;24.77
14269;BME280;7218;51.480;7.006;2023-05-28T12:38:09;100645.91;;;32.15;24.28
14269;BME280;7218;51.480;7.006;2023-05-28T12:40:36;100645.19;;;32.38;24.60
14269;BME280;7218;51.480;7.006;2023-05-28T12:43:02;100644.41;;;32.80;23.41
14269;BME280;7218;51.480;7.006;2023-05-28T12:45:30;100640.84;;;32.71;23.15
14269;BME280;7218;51.480;7.006;2023-05-28T12:47:56;100647.50;;;33.01;23.11
14269;BME280;7218;51.480;7.006;2023-05-28T12:50:23;100655.47;;;33.03;22.26
14269;BME280;7218;51.480;7.006;2023-05-28T12:52:49;100638.81;;;33.64;22.79
14269;BME280;7218;51.480;7.006;2023-05-28T12:55:16;100644.72;;;34.00;21.89
14269;BME280;7218;51.480;7.006;2023-05-28T12:57:43;100638.66;;;34.53;22.47
14269;BME280;7218;51.480;7.006;2023-05-28T13:00:10;100645.06;;;33.56;22.44
14269;BME280;7218;51.480;7.006;2023-05-28T13:02:39;100641.13;;;34.32;22.77